sensor_id;sensor_type;location;lat;lon;timestamp;P1;durP1;ratioP1;P2;durP2;ratioP2
66371;SDS011;53168;51.146;17.120;2023-06-26T00:02:11;11.59;;;11.59;;
66371;SDS011;53168;51.146;17.120;2023-06-26T00:04:41;11.05;;;11.05;;
66371;SDS011;53168;51.146;17.120;2023-06-26T00:07:12;11.00;;;11.00;;
66371;SDS011;53168;51.146;17.120;2023-06-26T00:09:41;11.70;;;11.70;;
66371;SDS011;53168;51.146;17.120;2023-06-26T00:12:11;12.10;;;12.10;;
66371;SDS011;53168;51.146;17.120;2023-06-26T00:14:58;11.69;;;11.64;;
66371;SDS011;53168;51.146;17.120;2023-06-26T00:17:31;11.06;;;11.04;;
66371;SDS011;53168;51.146;17.120;2023-06-26T00:20:07;11.35;;;11.33;;
66371;SDS011;53168;51.146;17.120;2023-06-26T00:35:29;11.75;;;11.73;;
66371;SDS011;53168;51.146;17.120;2023-06-26T00:38:35;10.80;;;10.80;;
66371;SDS011;53168;51.146;17.120;2023-06-26T00:41:34;10.74;;;10.69;;
66371;SDS011;53168;51.146;17.120;2023-06-26T00:44:23;10.77;;;10.76;;
66371;SDS011;53168;51.146;17.120;2023-06-26T00:50:18;11.66;;;11.62;;
66371;SDS011;53168;51.146;17.120;2023-06-26T00:53:29;10.99;;;10.99;;
66371;SDS011;53168;51.146;17.120;2023-06-26T00:56:36;11.75;;;11.73;;
66371;SDS011;53168;51.146;17.120;2023-06-26T01:02:31;11.16;;;11.16;;
66371;SDS011;53168;51.146;17.120;2023-06-26T01:05:01;11.37;;;11.37;;
66371;SDS011;53168;51.146;17.120;2023-06-26T01:07:35;12.42;;;12.39;;
66371;SDS011;53168;51.146;17.120;2023-06-26T01:10:07;12.31;;;12.31;;
66371;SDS011;53168;51.146;17.120;2023-06-26T01:12:37;11.22;;;11.22;;
66371;SDS011;53168;51.146;17.120;2023-06-26T01:15:09;10.97;;;10.97;;
66371;SDS011;53168;51.146;17.120;2023-06-26T01:17:39;10.88;;;10.86;;
66371;SDS011;53168;51.146;17.120;2023-06-26T01:20:12;11.51;;;11.51;;
66371;SDS011;53168;51.146;17.120;2023-06-26T01:22:45;11.40;;;11.40;;
66371;SDS011;53168;51.146;17.120;2023-06-26T01:25:33;11.31;;;11.31;;
66371;SDS011;53168;51.146;17.120;2023-06-26T01:28:30;12.03;;;12.03;;
66371;SDS011;53168;51.146;17.120;2023-06-26T01:31:03;12.11;;;12.11;;
66371;SDS011;53168;51.146;17.120;2023-06-26T01:33:43;11.00;;;11.00;;
66371;SDS011;53168;51.146;17.120;2023-06-26T01:36:16;12.38;;;12.36;;
66371;SDS011;53168;51.146;17.120;2023-06-26T01:45:18;10.57;;;10.57;;
66371;SDS011;53168;51.146;17.120;2023-06-26T01:52:52;12.24;;;12.24;;
66371;SDS011;53168;51.146;17.120;2023-06-26T01:56:06;12.22;;;12.21;;
66371;SDS011;53168;51.146;17.120;2023-06-26T01:59:20;11.09;;;11.08;;
66371;SDS011;53168;51.146;17.120;2023-06-26T02:02:08;11.57;;;11.57;;
66371;SDS011;53168;51.146;17.120;2023-06-26T02:04:52;11.96;;;11.96;;
66371;SDS011;53168;51.146;17.120;2023-06-26T02:07:23;11.32;;;11.32;;
66371;SDS011;53168;51.146;17.120;2023-06-26T02:09:55;11.69;;;11.68;;
66371;SDS011;53168;51.146;17.120;2023-06-26T02:12:26;11.32;;;11.30;;
66371;SDS011;53168;51.146;17.120;2023-06-26T02:14:56;11.96;;;11.96;;
66371;SDS011;53168;51.146;17.120;2023-06-26T02:17:26;12.33;;;12.33;;
66371;SDS011;53168;51.146;17.120;2023-06-26T02:19:57;11.10;;;11.10;;
66371;SDS011;53168;51.146;17.120;2023-06-26T02:22:31;11.24;;;11.22;;
66371;SDS011;53168;51.146;17.120;2023-06-26T02:25:03;12.26;;;12.26;;
66371;SDS011;53168;51.146;17.120;2023-06-26T02:27:38;11.55;;;11.55;;
66371;SDS011;53168;51.146;17.120;2023-06-26T02:30:20;12.05;;;12.04;;
66371;SDS011;53168;51.146;17.120;2023-06-26T02:32:51;12.39;;;12.39;;
66371;SDS011;53168;51.146;17.120;2023-06-26T02:35:34;12.39;;;12.39;;
66371;SDS011;53168;51.146;17.120;2023-06-26T02:38:06;12.64;;;12.62;;
66371;SDS011;53168;51.146;17.120;2023-06-26T02:40:40;12.93;;;12.92;;
66371;SDS011;53168;51.146;17.120;2023-06-26T02:43:24;12.10;;;12.10;;
66371;SDS011;53168;51.146;17.120;2023-06-26T02:46:04;12.63;;;12.61;;
66371;SDS011;53168;51.146;17.120;2023-06-26T02:48:37;12.26;;;12.23;;
66371;SDS011;53168;51.146;17.120;2023-06-26T02:51:09;12.60;;;12.59;;
66371;SDS011;53168;51.146;17.120;2023-06-26T02:54:09;12.21;;;12.20;;
66371;SDS011;53168;51.146;17.120;2023-06-26T02:56:42;12.20;;;12.20;;
66371;SDS011;53168;51.146;17.120;2023-06-26T02:59:15;12.51;;;12.51;;
66371;SDS011;53168;51.146;17.120;2023-06-26T03:01:46;12.57;;;12.57;;
66371;SDS011;53168;51.146;17.120;2023-06-26T03:04:16;12.24;;;12.24;;
66371;SDS011;53168;51.146;17.120;2023-06-26T03:06:48;12.16;;;12.16;;
66371;SDS011;53168;51.146;17.120;2023-06-26T03:09:18;12.55;;;12.53;;
66371;SDS011;53168;51.146;17.120;2023-06-26T03:11:49;12.69;;;12.68;;
66371;SDS011;53168;51.146;17.120;2023-06-26T03:14:23;13.03;;;13.03;;
66371;SDS011;53168;51.146;17.120;2023-06-26T03:16:55;12.86;;;12.86;;
66371;SDS011;53168;51.146;17.120;2023-06-26T03:19:28;11.20;;;11.19;;
66371;SDS011;53168;51.146;17.120;2023-06-26T03:22:15;11.69;;;11.69;;
66371;SDS011;53168;51.146;17.120;2023-06-26T03:24:45;11.27;;;11.27;;
66371;SDS011;53168;51.146;17.120;2023-06-26T03:27:14;12.27;;;12.27;;
66371;SDS011;53168;51.146;17.120;2023-06-26T03:29:47;11.60;;;11.57;;
66371;SDS011;53168;51.146;17.120;2023-06-26T03:32:18;11.64;;;11.63;;
66371;SDS011;53168;51.146;17.120;2023-06-26T03:34:50;12.45;;;12.43;;
66371;SDS011;53168;51.146;17.120;2023-06-26T03:37:21;12.84;;;12.84;;
66371;SDS011;53168;51.146;17.120;2023-06-26T03:39:52;12.41;;;12.41;;
66371;SDS011;53168;51.146;17.120;2023-06-26T03:42:22;12.24;;;12.24;;
66371;SDS011;53168;51.146;17.120;2023-06-26T03:44:55;11.67;;;11.67;;
66371;SDS011;53168;51.146;17.120;2023-06-26T03:47:28;12.29;;;12.26;;
66371;SDS011;53168;51.146;17.120;2023-06-26T03:50:04;11.68;;;11.68;;
66371;SDS011;53168;51.146;17.120;2023-06-26T03:52:35;11.59;;;11.58;;
66371;SDS011;53168;51.146;17.120;2023-06-26T03:55:06;10.78;;;10.76;;
66371;SDS011;53168;51.146;17.120;2023-06-26T03:57:37;10.71;;;10.71;;
66371;SDS011;53168;51.146;17.120;2023-06-26T04:00:12;11.23;;;11.23;;
66371;SDS011;53168;51.146;17.120;2023-06-26T04:02:47;11.85;;;11.85;;
66371;SDS011;53168;51.146;17.120;2023-06-26T04:05:21;12.04;;;12.04;;
66371;SDS011;53168;51.146;17.120;2023-06-26T04:07:52;12.03;;;11.99;;
66371;SDS011;53168;51.146;17.120;2023-06-26T04:10:29;11.59;;;11.59;;
66371;SDS011;53168;51.146;17.120;2023-06-26T04:13:19;11.64;;;11.64;;
66371;SDS011;53168;51.146;17.120;2023-06-26T04:15:49;11.92;;;11.92;;
66371;SDS011;53168;51.146;17.120;2023-06-26T04:18:18;12.70;;;12.70;;
66371;SDS011;53168;51.146;17.120;2023-06-26T04:21:04;12.00;;;12.00;;
66371;SDS011;53168;51.146;17.120;2023-06-26T04:23:49;12.26;;;12.26;;
66371;SDS011;53168;51.146;17.120;2023-06-26T04:30:35;12.65;;;12.65;;
66371;SDS011;53168;51.146;17.120;2023-06-26T04:37:47;12.59;;;12.59;;
66371;SDS011;53168;51.146;17.120;2023-06-26T04:41:20;11.56;;;11.56;;
66371;SDS011;53168;51.146;17.120;2023-06-26T04:48:33;12.49;;;12.48;;
66371;SDS011;53168;51.146;17.120;2023-06-26T04:51:26;12.03;;;12.02;;
66371;SDS011;53168;51.146;17.120;2023-06-26T04:54:19;11.82;;;11.82;;
66371;SDS011;53168;51.146;17.120;2023-06-26T04:57:32;9.44;;;9.43;;
66371;SDS011;53168;51.146;17.120;2023-06-26T05:00:19;10.96;;;10.96;;
66371;SDS011;53168;51.146;17.120;2023-06-26T05:02:49;11.47;;;11.47;;
66371;SDS011;53168;51.146;17.120;2023-06-26T05:05:29;12.53;;;12.52;;
66371;SDS011;53168;51.146;17.120;2023-06-26T05:07:58;12.41;;;12.40;;
66371;SDS011;53168;51.146;17.120;2023-06-26T05:10:42;10.99;;;10.98;;
66371;SDS011;53168;51.146;17.120;2023-06-26T05:13:13;11.32;;;11.31;;
66371;SDS011;53168;51.146;17.120;2023-06-26T05:15:45;9.85;;;9.85;;
66371;SDS011;53168;51.146;17.120;2023-06-26T05:41:24;10.00;;;10.00;;
66371;SDS011;53168;51.146;17.120;2023-06-26T05:43:59;10.45;;;10.43;;
66371;SDS011;53168;51.146;17.120;2023-06-26T05:46:33;10.23;;;10.20;;
66371;SDS011;53168;51.146;17.120;2023-06-26T05:49:08;10.48;;;10.48;;
66371;SDS011;53168;51.146;17.120;2023-06-26T05:51:46;9.95;;;9.95;;
66371;SDS011;53168;51.146;17.120;2023-06-26T05:54:21;10.42;;;10.42;;
66371;SDS011;53168;51.146;17.120;2023-06-26T05:56:57;11.15;;;11.15;;
66371;SDS011;53168;51.146;17.120;2023-06-26T05:59:47;10.26;;;10.26;;
66371;SDS011;53168;51.146;17.120;2023-06-26T06:02:23;9.42;;;9.41;;
66371;SDS011;53168;51.146;17.120;2023-06-26T06:05:00;10.04;;;10.04;;
66371;SDS011;53168;51.146;17.120;2023-06-26T06:08:01;10.23;;;10.23;;
66371;SDS011;53168;51.146;17.120;2023-06-26T06:10:41;9.10;;;9.10;;
66371;SDS011;53168;51.146;17.120;2023-06-26T06:13:20;10.03;;;10.03;;
66371;SDS011;53168;51.146;17.120;2023-06-26T06:15:59;10.35;;;10.30;;
66371;SDS011;53168;51.146;17.120;2023-06-26T06:19:05;9.98;;;9.95;;
66371;SDS011;53168;51.146;17.120;2023-06-26T06:22:05;9.35;;;9.34;;
66371;SDS011;53168;51.146;17.120;2023-06-26T06:24:44;8.38;;;8.38;;
66371;SDS011;53168;51.146;17.120;2023-06-26T06:27:20;9.01;;;9.01;;
66371;SDS011;53168;51.146;17.120;2023-06-26T06:29:58;9.09;;;9.08;;
66371;SDS011;53168;51.146;17.120;2023-06-26T06:35:54;8.72;;;8.72;;
66371;SDS011;53168;51.146;17.120;2023-06-26T06:38:28;9.95;;;9.95;;
66371;SDS011;53168;51.146;17.120;2023-06-26T06:41:02;8.44;;;8.43;;
66371;SDS011;53168;51.146;17.120;2023-06-26T06:43:51;9.81;;;9.80;;
66371;SDS011;53168;51.146;17.120;2023-06-26T06:49:10;9.46;;;9.46;;
66371;SDS011;53168;51.146;17.120;2023-06-26T06:52:33;9.94;;;9.94;;
66371;SDS011;53168;51.146;17.120;2023-06-26T06:55:57;7.60;;;7.60;;
66371;SDS011;53168;51.146;17.120;2023-06-26T07:02:17;8.54;;;8.54;;
66371;SDS011;53168;51.146;17.120;2023-06-26T07:05:10;8.55;;;8.55;;
66371;SDS011;53168;51.146;17.120;2023-06-26T07:11:49;8.88;;;8.88;;
66371;SDS011;53168;51.146;17.120;2023-06-26T07:14:54;8.06;;;8.05;;
66371;SDS011;53168;51.146;17.120;2023-06-26T07:18:28;7.69;;;7.69;;
66371;SDS011;53168;51.146;17.120;2023-06-26T07:26:15;6.89;;;6.89;;
66371;SDS011;53168;51.146;17.120;2023-06-26T07:29:49;7.79;;;7.79;;
66371;SDS011;53168;51.146;17.120;2023-06-26T07:32:46;7.44;;;7.44;;
66371;SDS011;53168;51.146;17.120;2023-06-26T07:35:41;6.77;;;6.77;;
66371;SDS011;53168;51.146;17.120;2023-06-26T07:39:10;7.32;;;7.32;;
66371;SDS011;53168;51.146;17.120;2023-06-26T07:42:07;8.23;;;8.22;;
66371;SDS011;53168;51.146;17.120;2023-06-26T07:44:53;7.44;;;7.44;;
66371;SDS011;53168;51.146;17.120;2023-06-26T07:47:33;7.34;;;7.34;;
66371;SDS011;53168;51.146;17.120;2023-06-26T07:50:46;7.12;;;7.12;;
66371;SDS011;53168;51.146;17.120;2023-06-26T07:53:34;6.98;;;6.98;;
66371;SDS011;53168;51.146;17.120;2023-06-26T07:56:35;6.87;;;6.87;;
66371;SDS011;53168;51.146;17.120;2023-06-26T07:59:42;6.32;;;6.32;;
66371;SDS011;53168;51.146;17.120;2023-06-26T08:02:35;6.71;;;6.71;;
66371;SDS011;53168;51.146;17.120;2023-06-26T08:06:12;6.20;;;6.20;;
66371;SDS011;53168;51.146;17.120;2023-06-26T08:09:32;6.81;;;6.81;;
66371;SDS011;53168;51.146;17.120;2023-06-26T08:12:14;6.09;;;6.09;;
66371;SDS011;53168;51.146;17.120;2023-06-26T08:15:13;5.84;;;5.84;;
66371;SDS011;53168;51.146;17.120;2023-06-26T08:21:04;6.79;;;6.79;;
66371;SDS011;53168;51.146;17.120;2023-06-26T08:27:51;5.39;;;5.39;;
66371;SDS011;53168;51.146;17.120;2023-06-26T08:31:08;5.30;;;5.30;;
66371;SDS011;53168;51.146;17.120;2023-06-26T08:33:51;5.52;;;5.52;;
66371;SDS011;53168;51.146;17.120;2023-06-26T08:37:04;4.98;;;4.98;;
66371;SDS011;53168;51.146;17.120;2023-06-26T08:40:33;4.87;;;4.87;;
66371;SDS011;53168;51.146;17.120;2023-06-26T08:43:43;5.28;;;5.28;;
66371;SDS011;53168;51.146;17.120;2023-06-26T08:46:39;4.54;;;4.54;;
66371;SDS011;53168;51.146;17.120;2023-06-26T08:49:50;5.50;;;5.50;;
66371;SDS011;53168;51.146;17.120;2023-06-26T08:56:49;4.88;;;4.88;;
66371;SDS011;53168;51.146;17.120;2023-06-26T09:00:03;4.71;;;4.71;;
66371;SDS011;53168;51.146;17.120;2023-06-26T09:06:48;4.71;;;4.71;;
66371;SDS011;53168;51.146;17.120;2023-06-26T09:13:45;4.80;;;4.80;;
66371;SDS011;53168;51.146;17.120;2023-06-26T09:16:51;5.32;;;5.32;;
66371;SDS011;53168;51.146;17.120;2023-06-26T09:20:24;5.43;;;5.43;;
66371;SDS011;53168;51.146;17.120;2023-06-26T09:24:08;4.81;;;4.81;;
66371;SDS011;53168;51.146;17.120;2023-06-26T09:26:55;4.78;;;4.78;;
66371;SDS011;53168;51.146;17.120;2023-06-26T09:42:52;5.69;;;5.39;;
66371;SDS011;53168;51.146;17.120;2023-06-26T09:45:35;5.06;;;5.06;;
66371;SDS011;53168;51.146;17.120;2023-06-26T09:48:11;4.79;;;4.77;;
66371;SDS011;53168;51.146;17.120;2023-06-26T09:50:49;4.95;;;4.94;;
66371;SDS011;53168;51.146;17.120;2023-06-26T09:53:41;5.90;;;5.90;;
66371;SDS011;53168;51.146;17.120;2023-06-26T09:56:18;4.27;;;4.27;;
66371;SDS011;53168;51.146;17.120;2023-06-26T09:58:52;4.37;;;4.37;;
66371;SDS011;53168;51.146;17.120;2023-06-26T10:01:30;4.98;;;4.98;;
66371;SDS011;53168;51.146;17.120;2023-06-26T10:04:11;4.84;;;4.84;;
66371;SDS011;53168;51.146;17.120;2023-06-26T10:06:46;4.79;;;4.79;;
66371;SDS011;53168;51.146;17.120;2023-06-26T10:09:27;5.52;;;5.52;;
66371;SDS011;53168;51.146;17.120;2023-06-26T10:12:03;4.76;;;4.76;;
66371;SDS011;53168;51.146;17.120;2023-06-26T10:14:45;4.79;;;4.79;;
66371;SDS011;53168;51.146;17.120;2023-06-26T10:17:22;5.37;;;5.37;;
66371;SDS011;53168;51.146;17.120;2023-06-26T10:20:10;5.46;;;5.46;;
66371;SDS011;53168;51.146;17.120;2023-06-26T10:22:49;4.98;;;4.98;;
66371;SDS011;53168;51.146;17.120;2023-06-26T10:25:28;5.33;;;5.33;;
66371;SDS011;53168;51.146;17.120;2023-06-26T10:28:11;5.71;;;5.71;;
66371;SDS011;53168;51.146;17.120;2023-06-26T10:30:51;4.98;;;4.98;;
66371;SDS011;53168;51.146;17.120;2023-06-26T10:33:29;4.57;;;4.57;;
66371;SDS011;53168;51.146;17.120;2023-06-26T10:36:16;4.53;;;4.53;;
66371;SDS011;53168;51.146;17.120;2023-06-26T10:39:03;4.43;;;4.43;;
66371;SDS011;53168;51.146;17.120;2023-06-26T10:41:39;4.76;;;4.76;;
66371;SDS011;53168;51.146;17.120;2023-06-26T10:44:25;4.94;;;4.94;;
66371;SDS011;53168;51.146;17.120;2023-06-26T10:47:30;5.22;;;5.22;;
66371;SDS011;53168;51.146;17.120;2023-06-26T10:50:22;4.63;;;4.63;;
66371;SDS011;53168;51.146;17.120;2023-06-26T10:53:13;4.83;;;4.83;;
66371;SDS011;53168;51.146;17.120;2023-06-26T10:56:00;5.40;;;5.40;;
66371;SDS011;53168;51.146;17.120;2023-06-26T10:58:41;4.76;;;4.76;;
66371;SDS011;53168;51.146;17.120;2023-06-26T11:01:19;4.91;;;4.91;;
66371;SDS011;53168;51.146;17.120;2023-06-26T11:04:03;4.55;;;4.55;;
66371;SDS011;53168;51.146;17.120;2023-06-26T11:06:45;4.91;;;4.91;;
66371;SDS011;53168;51.146;17.120;2023-06-26T11:09:39;4.01;;;4.01;;
66371;SDS011;53168;51.146;17.120;2023-06-26T11:12:38;4.22;;;4.22;;
66371;SDS011;53168;51.146;17.120;2023-06-26T11:15:18;4.64;;;4.64;;
66371;SDS011;53168;51.146;17.120;2023-06-26T11:17:55;4.19;;;4.19;;
66371;SDS011;53168;51.146;17.120;2023-06-26T11:20:32;4.14;;;4.14;;
66371;SDS011;53168;51.146;17.120;2023-06-26T11:23:07;4.31;;;4.31;;
66371;SDS011;53168;51.146;17.120;2023-06-26T11:25:46;4.30;;;4.30;;
66371;SDS011;53168;51.146;17.120;2023-06-26T11:28:27;4.55;;;4.55;;
66371;SDS011;53168;51.146;17.120;2023-06-26T11:31:01;4.48;;;4.48;;
66371;SDS011;53168;51.146;17.120;2023-06-26T11:33:36;4.40;;;4.40;;
66371;SDS011;53168;51.146;17.120;2023-06-26T11:36:10;3.99;;;3.99;;
66371;SDS011;53168;51.146;17.120;2023-06-26T11:38:44;3.91;;;3.91;;
66371;SDS011;53168;51.146;17.120;2023-06-26T11:41:28;4.07;;;4.07;;
66371;SDS011;53168;51.146;17.120;2023-06-26T11:44:08;3.82;;;3.82;;
66371;SDS011;53168;51.146;17.120;2023-06-26T11:46:46;4.07;;;4.07;;
66371;SDS011;53168;51.146;17.120;2023-06-26T11:49:26;4.26;;;4.26;;
66371;SDS011;53168;51.146;17.120;2023-06-26T11:52:04;4.14;;;4.14;;
66371;SDS011;53168;51.146;17.120;2023-06-26T11:54:38;3.91;;;3.91;;
66371;SDS011;53168;51.146;17.120;2023-06-26T11:57:16;3.90;;;3.90;;
66371;SDS011;53168;51.146;17.120;2023-06-26T12:00:12;3.50;;;3.50;;
66371;SDS011;53168;51.146;17.120;2023-06-26T12:02:57;4.14;;;4.14;;
66371;SDS011;53168;51.146;17.120;2023-06-26T12:05:34;3.86;;;3.86;;
66371;SDS011;53168;51.146;17.120;2023-06-26T12:08:09;4.02;;;4.02;;
66371;SDS011;53168;51.146;17.120;2023-06-26T12:10:46;3.46;;;3.46;;
66371;SDS011;53168;51.146;17.120;2023-06-26T12:13:38;3.93;;;3.93;;
66371;SDS011;53168;51.146;17.120;2023-06-26T12:16:23;4.12;;;4.12;;
66371;SDS011;53168;51.146;17.120;2023-06-26T12:22:16;3.86;;;3.86;;
66371;SDS011;53168;51.146;17.120;2023-06-26T12:38:49;3.43;;;3.43;;
66371;SDS011;53168;51.146;17.120;2023-06-26T12:42:17;3.36;;;3.36;;
66371;SDS011;53168;51.146;17.120;2023-06-26T12:49:03;3.43;;;3.43;;
66371;SDS011;53168;51.146;17.120;2023-06-26T12:52:14;3.58;;;3.58;;
66371;SDS011;53168;51.146;17.120;2023-06-26T12:54:52;3.31;;;3.31;;
66371;SDS011;53168;51.146;17.120;2023-06-26T12:57:35;3.13;;;3.13;;
66371;SDS011;53168;51.146;17.120;2023-06-26T13:00:12;3.56;;;3.56;;
66371;SDS011;53168;51.146;17.120;2023-06-26T13:06:12;2.95;;;2.95;;
66371;SDS011;53168;51.146;17.120;2023-06-26T13:09:23;3.32;;;3.32;;
66371;SDS011;53168;51.146;17.120;2023-06-26T13:12:40;3.93;;;3.93;;
66371;SDS011;53168;51.146;17.120;2023-06-26T13:15:51;3.28;;;3.28;;
66371;SDS011;53168;51.146;17.120;2023-06-26T13:25:37;3.11;;;3.11;;
66371;SDS011;53168;51.146;17.120;2023-06-26T13:29:02;3.20;;;3.20;;
66371;SDS011;53168;51.146;17.120;2023-06-26T13:31:58;3.47;;;3.47;;
66371;SDS011;53168;51.146;17.120;2023-06-26T13:46:36;3.20;;;3.20;;
66371;SDS011;53168;51.146;17.120;2023-06-26T13:49:32;3.05;;;3.05;;
66371;SDS011;53168;51.146;17.120;2023-06-26T13:52:49;3.04;;;3.04;;
66371;SDS011;53168;51.146;17.120;2023-06-26T13:55:26;3.42;;;3.42;;
66371;SDS011;53168;51.146;17.120;2023-06-26T13:58:04;3.05;;;3.05;;
66371;SDS011;53168;51.146;17.120;2023-06-26T14:01:08;3.35;;;3.35;;
66371;SDS011;53168;51.146;17.120;2023-06-26T14:03:55;3.11;;;3.11;;
66371;SDS011;53168;51.146;17.120;2023-06-26T14:06:51;3.42;;;3.42;;
66371;SDS011;53168;51.146;17.120;2023-06-26T14:09:46;3.48;;;3.48;;
66371;SDS011;53168;51.146;17.120;2023-06-26T14:12:22;3.77;;;3.77;;
66371;SDS011;53168;51.146;17.120;2023-06-26T14:15:00;3.91;;;3.91;;
66371;SDS011;53168;51.146;17.120;2023-06-26T14:17:42;3.59;;;3.59;;
66371;SDS011;53168;51.146;17.120;2023-06-26T14:20:17;3.72;;;3.72;;
66371;SDS011;53168;51.146;17.120;2023-06-26T14:22:51;3.22;;;3.22;;
66371;SDS011;53168;51.146;17.120;2023-06-26T14:25:26;3.38;;;3.38;;
66371;SDS011;53168;51.146;17.120;2023-06-26T14:28:00;3.39;;;3.39;;
66371;SDS011;53168;51.146;17.120;2023-06-26T14:30:34;3.31;;;3.31;;
66371;SDS011;53168;51.146;17.120;2023-06-26T14:33:08;3.28;;;3.28;;
66371;SDS011;53168;51.146;17.120;2023-06-26T14:35:43;3.29;;;3.29;;
66371;SDS011;53168;51.146;17.120;2023-06-26T14:38:17;3.12;;;3.12;;
66371;SDS011;53168;51.146;17.120;2023-06-26T14:41:59;3.57;;;3.57;;
66371;SDS011;53168;51.146;17.120;2023-06-26T14:45:56;3.33;;;3.33;;
66371;SDS011;53168;51.146;17.120;2023-06-26T14:59:59;3.76;;;3.76;;
66371;SDS011;53168;51.146;17.120;2023-06-26T15:07:46;3.50;;;3.50;;
66371;SDS011;53168;51.146;17.120;2023-06-26T15:10:20;3.38;;;3.38;;
66371;SDS011;53168;51.146;17.120;2023-06-26T15:12:57;3.42;;;3.42;;
66371;SDS011;53168;51.146;17.120;2023-06-26T15:15:31;3.38;;;3.38;;
66371;SDS011;53168;51.146;17.120;2023-06-26T15:18:04;3.37;;;3.37;;
66371;SDS011;53168;51.146;17.120;2023-06-26T15:23:49;3.51;;;3.51;;
66371;SDS011;53168;51.146;17.120;2023-06-26T15:26:29;3.31;;;3.31;;
66371;SDS011;53168;51.146;17.120;2023-06-26T15:29:05;3.31;;;3.31;;
66371;SDS011;53168;51.146;17.120;2023-06-26T15:31:48;3.40;;;3.40;;
66371;SDS011;53168;51.146;17.120;2023-06-26T15:34:22;3.51;;;3.51;;
66371;SDS011;53168;51.146;17.120;2023-06-26T15:36:59;3.20;;;3.20;;
66371;SDS011;53168;51.146;17.120;2023-06-26T15:39:45;3.67;;;3.67;;
66371;SDS011;53168;51.146;17.120;2023-06-26T15:42:26;3.82;;;3.82;;
66371;SDS011;53168;51.146;17.120;2023-06-26T15:45:04;4.10;;;4.10;;
66371;SDS011;53168;51.146;17.120;2023-06-26T15:47:42;3.70;;;3.70;;
66371;SDS011;53168;51.146;17.120;2023-06-26T15:50:19;3.27;;;3.27;;
66371;SDS011;53168;51.146;17.120;2023-06-26T15:53:01;3.49;;;3.49;;
66371;SDS011;53168;51.146;17.120;2023-06-26T16:14:31;3.70;;;3.70;;
66371;SDS011;53168;51.146;17.120;2023-06-26T16:17:13;3.55;;;3.55;;
66371;SDS011;53168;51.146;17.120;2023-06-26T16:20:03;3.59;;;3.59;;
66371;SDS011;53168;51.146;17.120;2023-06-26T16:22:41;3.38;;;3.38;;
66371;SDS011;53168;51.146;17.120;2023-06-26T16:25:15;3.33;;;3.33;;
66371;SDS011;53168;51.146;17.120;2023-06-26T16:28:13;3.42;;;3.42;;
66371;SDS011;53168;51.146;17.120;2023-06-26T16:33:08;3.98;;;3.98;;
66371;SDS011;53168;51.146;17.120;2023-06-26T16:36:07;3.69;;;3.69;;
66371;SDS011;53168;51.146;17.120;2023-06-26T16:39:21;4.12;;;4.12;;
66371;SDS011;53168;51.146;17.120;2023-06-26T16:42:20;3.92;;;3.92;;
66371;SDS011;53168;51.146;17.120;2023-06-26T16:45:44;3.76;;;3.76;;
66371;SDS011;53168;51.146;17.120;2023-06-26T16:48:24;3.98;;;3.98;;
66371;SDS011;53168;51.146;17.120;2023-06-26T16:51:04;3.87;;;3.87;;
66371;SDS011;53168;51.146;17.120;2023-06-26T16:57:21;4.07;;;4.07;;
66371;SDS011;53168;51.146;17.120;2023-06-26T17:00:09;4.28;;;4.28;;
66371;SDS011;53168;51.146;17.120;2023-06-26T17:03:07;4.31;;;4.31;;
66371;SDS011;53168;51.146;17.120;2023-06-26T17:06:06;4.52;;;4.52;;
66371;SDS011;53168;51.146;17.120;2023-06-26T17:46:02;5.95;;;5.95;;
66371;SDS011;53168;51.146;17.120;2023-06-26T17:52:45;5.65;;;5.65;;
66371;SDS011;53168;51.146;17.120;2023-06-26T17:55:36;5.55;;;5.55;;
66371;SDS011;53168;51.146;17.120;2023-06-26T18:01:38;5.44;;;5.44;;
66371;SDS011;53168;51.146;17.120;2023-06-26T18:04:40;5.57;;;5.57;;
66371;SDS011;53168;51.146;17.120;2023-06-26T18:07:19;5.67;;;5.67;;
66371;SDS011;53168;51.146;17.120;2023-06-26T18:10:33;5.30;;;5.30;;
66371;SDS011;53168;51.146;17.120;2023-06-26T18:13:42;5.65;;;5.65;;
66371;SDS011;53168;51.146;17.120;2023-06-26T18:16:55;5.92;;;5.92;;
66371;SDS011;53168;51.146;17.120;2023-06-26T18:20:32;5.86;;;5.86;;
66371;SDS011;53168;51.146;17.120;2023-06-26T18:23:49;6.08;;;6.08;;
66371;SDS011;53168;51.146;17.120;2023-06-26T18:26:35;5.84;;;5.84;;
66371;SDS011;53168;51.146;17.120;2023-06-26T18:31:23;5.79;;;5.79;;
66371;SDS011;53168;51.146;17.120;2023-06-26T18:45:16;6.18;;;6.18;;
66371;SDS011;53168;51.146;17.120;2023-06-26T18:47:55;6.61;;;6.61;;
66371;SDS011;53168;51.146;17.120;2023-06-26T18:57:28;6.95;;;6.95;;
66371;SDS011;53168;51.146;17.120;2023-06-26T19:00:20;6.93;;;6.93;;
66371;SDS011;53168;51.146;17.120;2023-06-26T19:03:18;7.39;;;7.39;;
66371;SDS011;53168;51.146;17.120;2023-06-26T19:06:14;7.07;;;7.07;;
66371;SDS011;53168;51.146;17.120;2023-06-26T19:12:11;7.17;;;7.17;;
66371;SDS011;53168;51.146;17.120;2023-06-26T19:14:53;6.84;;;6.84;;
66371;SDS011;53168;51.146;17.120;2023-06-26T19:17:27;7.25;;;7.25;;
66371;SDS011;53168;51.146;17.120;2023-06-26T19:20:02;6.90;;;6.90;;
66371;SDS011;53168;51.146;17.120;2023-06-26T19:22:41;6.63;;;6.63;;
66371;SDS011;53168;51.146;17.120;2023-06-26T19:25:20;6.88;;;6.88;;
66371;SDS011;53168;51.146;17.120;2023-06-26T19:28:00;6.48;;;6.48;;
66371;SDS011;53168;51.146;17.120;2023-06-26T19:30:41;6.11;;;6.11;;
66371;SDS011;53168;51.146;17.120;2023-06-26T19:33:18;6.03;;;6.03;;
66371;SDS011;53168;51.146;17.120;2023-06-26T19:36:01;5.95;;;5.95;;
66371;SDS011;53168;51.146;17.120;2023-06-26T19:39:13;5.86;;;5.86;;
66371;SDS011;53168;51.146;17.120;2023-06-26T19:42:03;6.13;;;6.13;;
66371;SDS011;53168;51.146;17.120;2023-06-26T19:44:46;5.54;;;5.54;;
66371;SDS011;53168;51.146;17.120;2023-06-26T19:47:30;5.54;;;5.54;;
66371;SDS011;53168;51.146;17.120;2023-06-26T19:50:08;4.66;;;4.66;;
66371;SDS011;53168;51.146;17.120;2023-06-26T19:52:51;4.93;;;4.93;;
66371;SDS011;53168;51.146;17.120;2023-06-26T19:55:36;5.31;;;5.31;;
66371;SDS011;53168;51.146;17.120;2023-06-26T19:58:40;5.93;;;5.93;;
66371;SDS011;53168;51.146;17.120;2023-06-26T20:01:34;5.55;;;5.55;;
66371;SDS011;53168;51.146;17.120;2023-06-26T20:04:19;5.67;;;5.67;;
66371;SDS011;53168;51.146;17.120;2023-06-26T20:06:56;5.83;;;5.83;;
66371;SDS011;53168;51.146;17.120;2023-06-26T20:09:37;5.32;;;5.32;;
66371;SDS011;53168;51.146;17.120;2023-06-26T20:12:11;5.06;;;5.06;;
66371;SDS011;53168;51.146;17.120;2023-06-26T20:14:49;5.02;;;5.02;;
66371;SDS011;53168;51.146;17.120;2023-06-26T20:18:07;5.07;;;5.07;;
66371;SDS011;53168;51.146;17.120;2023-06-26T20:21:15;4.66;;;4.66;;
66371;SDS011;53168;51.146;17.120;2023-06-26T20:24:51;4.43;;;4.43;;
66371;SDS011;53168;51.146;17.120;2023-06-26T20:28:05;4.68;;;4.68;;
66371;SDS011;53168;51.146;17.120;2023-06-26T20:30:59;5.33;;;5.33;;
66371;SDS011;53168;51.146;17.120;2023-06-26T20:33:59;4.74;;;4.74;;
66371;SDS011;53168;51.146;17.120;2023-06-26T20:37:28;5.16;;;5.16;;
66371;SDS011;53168;51.146;17.120;2023-06-26T20:40:14;5.12;;;5.12;;
66371;SDS011;53168;51.146;17.120;2023-06-26T20:42:51;5.20;;;5.20;;
66371;SDS011;53168;51.146;17.120;2023-06-26T20:45:27;5.54;;;5.54;;
66371;SDS011;53168;51.146;17.120;2023-06-26T20:48:03;5.57;;;5.57;;
66371;SDS011;53168;51.146;17.120;2023-06-26T20:50:40;5.38;;;5.38;;